sensor_id;sensor_type;location;lat;lon;timestamp;pressure;altitude;pressure_sealevel;temperature;humidity
22031;BME280;11179;52.106;21.024;2024-03-02T00:00:04;100186.47;;;6.69;71.45
22031;BME280;11179;52.106;21.024;2024-03-02T00:02:42;100167.38;;;6.57;71.61
22031;BME280;11179;52.106;21.024;2024-03-02T00:05:10;100178.75;;;6.54;71.74
22031;BME280;11179;52.106;21.024;2024-03-02T00:07:36;100172.13;;;6.50;71.73
22031;BME280;11179;52.106;21.024;2024-03-02T00:10:08;100181.00;;;6.46;71.95
22031;BME280;11179;52.106;21.024;2024-03-02T00:12:36;100177.81;;;6.49;72.08
22031;BME280;11179;52.106;21.024;2024-03-02T00:15:01;100177.34;;;6.52;71.87
22031;BME280;11179;52.106;21.024;2024-03-02T00:17:29;100185.03;;;6.55;71.98
22031;BME280;11179;52.106;21.024;2024-03-02T00:19:55;100180.88;;;6.52;71.96
22031;BME280;11179;52.106;21.024;2024-03-02T00:22:20;100181.13;;;6.51;71.94
22031;BME280;11179;52.106;21.024;2024-03-02T00:24:45;100176.16;;;6.48;71.94
22031;BME280;11179;52.106;21.024;2024-03-02T00:27:14;100171.63;;;6.42;71.98
22031;BME280;11179;52.106;21.024;2024-03-02T00:29:40;100180.19;;;6.45;71.92
22031;BME280;11179;52.106;21.024;2024-03-02T00:32:12;100177.69;;;6.44;72.09
22031;BME280;11179;52.106;21.024;2024-03-02T00:34:38;100175.19;;;6.42;72.04
22031;BME280;11179;52.106;21.024;2024-03-02T00:37:04;100177.06;;;6.42;72.10
22031;BME280;11179;52.106;21.024;2024-03-02T00:39:29;100173.88;;;6.45;72.14
22031;BME280;11179;52.106;21.024;2024-03-02T00:41:55;100180.53;;;6.49;72.06
22031;BME280;11179;52.106;21.024;2024-03-02T00:44:25;100183.25;;;6.49;72.27
22031;BME280;11179;52.106;21.024;2024-03-02T00:46:51;100183.50;;;6.47;72.18
22031;BME280;11179;52.106;21.024;2024-03-02T00:49:24;100178.03;;;6.47;72.26
22031;BME280;11179;52.106;21.024;2024-03-02T00:51:52;100174.84;;;6.50;72.28
22031;BME280;11179;52.106;21.024;2024-03-02T00:54:36;100177.22;;;6.47;72.08
22031;BME280;11179;52.106;21.024;2024-03-02T00:57:01;100172.69;;;6.41;72.45
22031;BME280;11179;52.106;21.024;2024-03-02T00:59:27;100171.03;;;6.40;72.60
22031;BME280;11179;52.106;21.024;2024-03-02T01:01:52;100165.06;;;6.31;72.59
22031;BME280;11179;52.106;21.024;2024-03-02T01:04:19;100174.13;;;6.32;72.49
22031;BME280;11179;52.106;21.024;2024-03-02T01:06:44;100164.03;;;6.32;72.70
22031;BME280;11179;52.106;21.024;2024-03-02T01:09:09;100154.84;;;6.27;72.59
22031;BME280;11179;52.106;21.024;2024-03-02T01:11:35;100157.94;;;6.30;72.52
22031;BME280;11179;52.106;21.024;2024-03-02T01:14:00;100165.94;;;6.32;72.59
22031;BME280;11179;52.106;21.024;2024-03-02T01:16:25;100161.50;;;6.31;72.82
22031;BME280;11179;52.106;21.024;2024-03-02T01:18:51;100156.06;;;6.31;72.74
22031;BME280;11179;52.106;21.024;2024-03-02T01:21:16;100161.31;;;6.32;72.82
22031;BME280;11179;52.106;21.024;2024-03-02T01:23:42;100163.19;;;6.32;72.69
22031;BME280;11179;52.106;21.024;2024-03-02T01:26:07;100164.09;;;6.26;72.89
22031;BME280;11179;52.106;21.024;2024-03-02T01:28:33;100154.75;;;6.21;72.61
22031;BME280;11179;52.106;21.024;2024-03-02T01:30:58;100161.25;;;6.20;72.57
22031;BME280;11179;52.106;21.024;2024-03-02T01:33:23;100159.59;;;6.19;73.02
22031;BME280;11179;52.106;21.024;2024-03-02T01:35:49;100150.34;;;6.20;72.79
22031;BME280;11179;52.106;21.024;2024-03-02T01:38:14;100159.59;;;6.19;72.88
22031;BME280;11179;52.106;21.024;2024-03-02T01:40:39;100156.88;;;6.19;72.95
22031;BME280;11179;52.106;21.024;2024-03-02T01:43:05;100151.41;;;6.19;73.19
22031;BME280;11179;52.106;21.024;2024-03-02T01:45:32;100147.16;;;6.23;72.99
22031;BME280;11179;52.106;21.024;2024-03-02T01:47:57;100151.06;;;6.28;72.87
22031;BME280;11179;52.106;21.024;2024-03-02T01:50:31;100140.66;;;6.25;72.86
22031;BME280;11179;52.106;21.024;2024-03-02T01:52:57;100139.44;;;6.20;73.20
22031;BME280;11179;52.106;21.024;2024-03-02T01:55:22;100155.34;;;6.23;72.90
22031;BME280;11179;52.106;21.024;2024-03-02T01:57:52;100140.97;;;6.16;73.32
22031;BME280;11179;52.106;21.024;2024-03-02T02:00:20;100145.59;;;6.16;73.33
22031;BME280;11179;52.106;21.024;2024-03-02T02:02:47;100142.03;;;6.15;73.19
22031;BME280;11179;52.106;21.024;2024-03-02T02:05:13;100138.38;;;6.10;73.55
22031;BME280;11179;52.106;21.024;2024-03-02T02:07:40;100140.59;;;6.13;73.42
22031;BME280;11179;52.106;21.024;2024-03-02T02:10:06;100129.13;;;6.11;73.33
22031;BME280;11179;52.106;21.024;2024-03-02T02:12:32;100130.06;;;6.05;73.56
22031;BME280;11179;52.106;21.024;2024-03-02T02:14:57;100137.41;;;6.04;73.63
22031;BME280;11179;52.106;21.024;2024-03-02T02:17:23;100139.31;;;6.04;73.57
22031;BME280;11179;52.106;21.024;2024-03-02T02:19:48;100141.19;;;6.03;73.41
22031;BME280;11179;52.106;21.024;2024-03-02T02:22:13;100132.19;;;6.03;73.61
22031;BME280;11179;52.106;21.024;2024-03-02T02:24:42;100145.44;;;5.99;73.56
22031;BME280;11179;52.106;21.024;2024-03-02T02:27:08;100140.81;;;6.00;73.64
22031;BME280;11179;52.106;21.024;2024-03-02T02:29:34;100139.75;;;6.01;73.76
22031;BME280;11179;52.106;21.024;2024-03-02T02:31:59;100135.63;;;5.98;73.59
22031;BME280;11179;52.106;21.024;2024-03-02T02:34:25;100124.13;;;5.96;73.77
22031;BME280;11179;52.106;21.024;2024-03-02T02:36:50;100124.59;;;5.93;73.69
22031;BME280;11179;52.106;21.024;2024-03-02T02:39:18;100125.06;;;5.90;73.98
22031;BME280;11179;52.106;21.024;2024-03-02T02:41:45;100129.56;;;5.84;73.99
22031;BME280;11179;52.106;21.024;2024-03-02T02:44:10;100126.22;;;5.82;73.76
22031;BME280;11179;52.106;21.024;2024-03-02T02:46:38;100117.81;;;5.84;73.98
22031;BME280;11179;52.106;21.024;2024-03-02T02:49:04;100117.09;;;5.77;73.96
22031;BME280;11179;52.106;21.024;2024-03-02T02:51:29;100118.38;;;5.74;73.80
22031;BME280;11179;52.106;21.024;2024-03-02T02:53:54;100115.53;;;5.69;73.89
22031;BME280;11179;52.106;21.024;2024-03-02T02:56:20;100124.31;;;5.71;74.27
22031;BME280;11179;52.106;21.024;2024-03-02T02:58:45;100112.59;;;5.71;73.95
22031;BME280;11179;52.106;21.024;2024-03-02T03:01:10;100118.03;;;5.71;73.90
22031;BME280;11179;52.106;21.024;2024-03-02T03:03:36;100108.06;;;5.65;74.21
22031;BME280;11179;52.106;21.024;2024-03-02T03:06:01;100100.00;;;5.58;74.27
22031;BME280;11179;52.106;21.024;2024-03-02T03:08:27;100107.34;;;5.58;74.11
22031;BME280;11179;52.106;21.024;2024-03-02T03:10:53;100103.84;;;5.50;74.38
22031;BME280;11179;52.106;21.024;2024-03-02T03:13:18;100113.31;;;5.48;74.24
22031;BME280;11179;52.106;21.024;2024-03-02T03:15:43;100103.25;;;5.48;74.57
22031;BME280;11179;52.106;21.024;2024-03-02T03:18:09;100110.25;;;5.44;74.48
22031;BME280;11179;52.106;21.024;2024-03-02T03:20:35;100105.47;;;5.40;74.43
22031;BME280;11179;52.106;21.024;2024-03-02T03:23:01;100105.56;;;5.33;74.50
22031;BME280;11179;52.106;21.024;2024-03-02T03:25:26;100108.63;;;5.25;74.63
22031;BME280;11179;52.106;21.024;2024-03-02T03:27:52;100111.94;;;5.27;75.05
22031;BME280;11179;52.106;21.024;2024-03-02T03:30:20;100105.28;;;5.23;75.06
22031;BME280;11179;52.106;21.024;2024-03-02T03:32:45;100106.50;;;5.27;75.14
22031;BME280;11179;52.106;21.024;2024-03-02T03:35:10;100114.66;;;5.27;75.06
22031;BME280;11179;52.106;21.024;2024-03-02T03:37:37;100112.84;;;5.21;75.11
22031;BME280;11179;52.106;21.024;2024-03-02T03:40:03;100104.56;;;5.16;75.26
22031;BME280;11179;52.106;21.024;2024-03-02T03:42:32;100098.63;;;5.19;75.10
22031;BME280;11179;52.106;21.024;2024-03-02T03:44:57;100104.34;;;5.18;75.35
22031;BME280;11179;52.106;21.024;2024-03-02T03:47:23;100106.22;;;5.17;75.27
22031;BME280;11179;52.106;21.024;2024-03-02T03:49:48;100102.66;;;5.17;75.36
22031;BME280;11179;52.106;21.024;2024-03-02T03:52:13;100108.47;;;5.20;75.29
22031;BME280;11179;52.106;21.024;2024-03-02T03:54:39;100101.13;;;5.21;75.26
22031;BME280;11179;52.106;21.024;2024-03-02T03:57:04;100099.47;;;5.20;75.37
22031;BME280;11179;52.106;21.024;2024-03-02T03:59:30;100102.88;;;5.15;75.22
22031;BME280;11179;52.106;21.024;2024-03-02T04:01:55;100105.63;;;5.15;75.59
22031;BME280;11179;52.106;21.024;2024-03-02T04:04:20;100101.22;;;5.14;75.78
22031;BME280;11179;52.106;21.024;2024-03-02T04:06:46;100106.66;;;5.14;75.43
22031;BME280;11179;52.106;21.024;2024-03-02T04:09:11;100113.16;;;5.13;75.89
22031;BME280;11179;52.106;21.024;2024-03-02T04:11:36;100113.16;;;5.13;76.02
22031;BME280;11179;52.106;21.024;2024-03-02T04:14:02;100114.69;;;5.09;75.72
22031;BME280;11179;52.106;21.024;2024-03-02T04:16:27;100118.47;;;5.08;76.05
22031;BME280;11179;52.106;21.024;2024-03-02T04:18:54;100103.66;;;5.04;76.30
22031;BME280;11179;52.106;21.024;2024-03-02T04:21:19;100108.88;;;5.05;76.47
22031;BME280;11179;52.106;21.024;2024-03-02T04:23:45;100103.44;;;5.05;76.30
22031;BME280;11179;52.106;21.024;2024-03-02T04:26:10;100101.78;;;5.04;76.46
22031;BME280;11179;52.106;21.024;2024-03-02T04:28:35;100107.22;;;5.04;76.36
22031;BME280;11179;52.106;21.024;2024-03-02T04:31:01;100111.84;;;5.04;76.52
22031;BME280;11179;52.106;21.024;2024-03-02T04:33:26;100102.97;;;5.08;76.48
22031;BME280;11179;52.106;21.024;2024-03-02T04:35:51;100104.13;;;5.01;76.05
22031;BME280;11179;52.106;21.024;2024-03-02T04:38:16;100101.00;;;4.97;76.60
22031;BME280;11179;52.106;21.024;2024-03-02T04:40:42;100092.47;;;4.94;76.59
22031;BME280;11179;52.106;21.024;2024-03-02T04:43:07;100095.19;;;4.94;76.36
22031;BME280;11179;52.106;21.024;2024-03-02T04:45:35;100091.88;;;4.92;76.52
22031;BME280;11179;52.106;21.024;2024-03-02T04:48:01;100105.72;;;4.90;76.56
22031;BME280;11179;52.106;21.024;2024-03-02T04:50:26;100092.78;;;4.86;77.06
22031;BME280;11179;52.106;21.024;2024-03-02T04:52:52;100096.72;;;4.90;76.86
22031;BME280;11179;52.106;21.024;2024-03-02T04:55:17;100103.66;;;4.86;76.76
22031;BME280;11179;52.106;21.024;2024-03-02T04:58:14;100102.50;;;4.93;76.83
22031;BME280;11179;52.106;21.024;2024-03-02T05:00:40;100103.97;;;4.96;76.66
22031;BME280;11179;52.106;21.024;2024-03-02T05:03:05;100113.19;;;4.95;76.75
22031;BME280;11179;52.106;21.024;2024-03-02T05:05:30;100110.22;;;4.96;76.73
22031;BME280;11179;52.106;21.024;2024-03-02T05:07:56;100116.06;;;5.00;76.72
22031;BME280;11179;52.106;21.024;2024-03-02T05:10:21;100119.38;;;5.02;77.00
22031;BME280;11179;52.106;21.024;2024-03-02T05:12:46;100105.19;;;5.00;76.81
22031;BME280;11179;52.106;21.024;2024-03-02T05:15:22;100124.81;;;5.02;76.98
22031;BME280;11179;52.106;21.024;2024-03-02T05:17:47;100125.88;;;5.01;76.98
22031;BME280;11179;52.106;21.024;2024-03-02T05:20:13;100118.56;;;5.01;76.78
22031;BME280;11179;52.106;21.024;2024-03-02T05:22:38;100131.94;;;5.03;76.67
22031;BME280;11179;52.106;21.024;2024-03-02T05:25:05;100135.31;;;4.98;76.88
22031;BME280;11179;52.106;21.024;2024-03-02T05:27:30;100138.22;;;5.03;77.31
22031;BME280;11179;52.106;21.024;2024-03-02T05:29:58;100124.38;;;5.05;77.15
22031;BME280;11179;52.106;21.024;2024-03-02T05:32:23;100136.53;;;5.02;76.87
22031;BME280;11179;52.106;21.024;2024-03-02T05:34:49;100139.03;;;5.04;77.18
22031;BME280;11179;52.106;21.024;2024-03-02T05:37:16;100135.50;;;5.03;77.43
22031;BME280;11179;52.106;21.024;2024-03-02T05:39:41;100126.84;;;5.06;77.07
22031;BME280;11179;52.106;21.024;2024-03-02T05:42:08;100144.00;;;5.07;77.13
22031;BME280;11179;52.106;21.024;2024-03-02T05:44:34;100130.66;;;5.05;76.99
22031;BME280;11179;52.106;21.024;2024-03-02T05:46:59;100144.47;;;5.04;77.23
22031;BME280;11179;52.106;21.024;2024-03-02T05:49:25;100135.72;;;5.02;77.29
22031;BME280;11179;52.106;21.024;2024-03-02T05:51:50;100146.44;;;4.97;77.21
22031;BME280;11179;52.106;21.024;2024-03-02T05:54:15;100152.66;;;5.04;77.45
22031;BME280;11179;52.106;21.024;2024-03-02T05:56:41;100148.25;;;5.03;77.27
22031;BME280;11179;52.106;21.024;2024-03-02T05:59:06;100150.28;;;5.07;77.28
22031;BME280;11179;52.106;21.024;2024-03-02T06:01:39;100154.88;;;5.07;77.52
22031;BME280;11179;52.106;21.024;2024-03-02T06:04:04;100157.16;;;5.10;77.28
22031;BME280;11179;52.106;21.024;2024-03-02T06:06:29;100158.00;;;5.10;77.28
22031;BME280;11179;52.106;21.024;2024-03-02T06:08:55;100155.28;;;5.10;77.61
22031;BME280;11179;52.106;21.024;2024-03-02T06:11:20;100157.09;;;5.17;77.24
22031;BME280;11179;52.106;21.024;2024-03-02T06:13:46;100165.38;;;5.22;77.48
22031;BME280;11179;52.106;21.024;2024-03-02T06:16:11;100150.34;;;5.19;77.28
22031;BME280;11179;52.106;21.024;2024-03-02T06:18:37;100158.88;;;5.23;77.28
22031;BME280;11179;52.106;21.024;2024-03-02T06:21:02;100155.94;;;5.24;77.52
22031;BME280;11179;52.106;21.024;2024-03-02T06:23:28;100178.94;;;5.28;77.58
22031;BME280;11179;52.106;21.024;2024-03-02T06:25:54;100180.16;;;5.32;77.69
22031;BME280;11179;52.106;21.024;2024-03-02T06:28:19;100172.34;;;5.36;77.71
22031;BME280;11179;52.106;21.024;2024-03-02T06:30:45;100171.66;;;5.40;77.34
22031;BME280;11179;52.106;21.024;2024-03-02T06:33:11;100178.63;;;5.36;77.62
22031;BME280;11179;52.106;21.024;2024-03-02T06:35:36;100188.84;;;5.41;77.42
22031;BME280;11179;52.106;21.024;2024-03-02T06:38:02;100185.88;;;5.42;77.55
22031;BME280;11179;52.106;21.024;2024-03-02T06:40:27;100173.56;;;5.40;77.76
22031;BME280;11179;52.106;21.024;2024-03-02T06:42:53;100178.31;;;5.44;77.66
22031;BME280;11179;52.106;21.024;2024-03-02T06:45:18;100178.22;;;5.51;77.67
22031;BME280;11179;52.106;21.024;2024-03-02T06:47:44;100170.44;;;5.55;77.69
22031;BME280;11179;52.106;21.024;2024-03-02T06:50:09;100171.03;;;5.57;77.66
22031;BME280;11179;52.106;21.024;2024-03-02T06:52:35;100173.16;;;5.55;77.56
22031;BME280;11179;52.106;21.024;2024-03-02T06:55:01;100190.69;;;5.59;77.74
22031;BME280;11179;52.106;21.024;2024-03-02T06:57:26;100188.31;;;5.62;77.56
22031;BME280;11179;52.106;21.024;2024-03-02T06:59:52;100182.81;;;5.69;77.54
22031;BME280;11179;52.106;21.024;2024-03-02T07:02:20;100177.13;;;5.70;77.47
22031;BME280;11179;52.106;21.024;2024-03-02T07:04:46;100178.53;;;5.73;77.46
22031;BME280;11179;52.106;21.024;2024-03-02T07:07:12;100177.47;;;5.74;77.49
22031;BME280;11179;52.106;21.024;2024-03-02T07:09:37;100184.13;;;5.78;77.56
22031;BME280;11179;52.106;21.024;2024-03-02T07:12:03;100180.13;;;5.80;77.62
22031;BME280;11179;52.106;21.024;2024-03-02T07:14:28;100187.22;;;5.81;77.69
22031;BME280;11179;52.106;21.024;2024-03-02T07:17:14;100186.41;;;5.81;77.59
22031;BME280;11179;52.106;21.024;2024-03-02T07:19:39;100185.34;;;5.82;77.41
22031;BME280;11179;52.106;21.024;2024-03-02T07:22:08;100190.06;;;5.86;77.52
22031;BME280;11179;52.106;21.024;2024-03-02T07:24:42;100190.06;;;5.86;77.80
22031;BME280;11179;52.106;21.024;2024-03-02T07:27:10;100189.38;;;5.91;77.70
22031;BME280;11179;52.106;21.024;2024-03-02T07:29:37;100191.06;;;5.92;77.32
22031;BME280;11179;52.106;21.024;2024-03-02T07:32:03;100188.94;;;5.94;77.70
22031;BME280;11179;52.106;21.024;2024-03-02T07:34:30;100178.63;;;5.96;77.50
22031;BME280;11179;52.106;21.024;2024-03-02T07:36:55;100186.94;;;6.01;77.22
22031;BME280;11179;52.106;21.024;2024-03-02T07:39:21;100187.44;;;6.10;77.28
22031;BME280;11179;52.106;21.024;2024-03-02T07:41:47;100182.09;;;6.15;77.16
22031;BME280;11179;52.106;21.024;2024-03-02T07:44:12;100188.06;;;6.23;77.28
22031;BME280;11179;52.106;21.024;2024-03-02T07:46:44;100190.47;;;6.32;77.13
22031;BME280;11179;52.106;21.024;2024-03-02T07:49:11;100195.47;;;6.35;77.10
22031;BME280;11179;52.106;21.024;2024-03-02T07:51:38;100198.56;;;6.38;76.76
22031;BME280;11179;52.106;21.024;2024-03-02T07:54:03;100211.94;;;6.40;76.79
22031;BME280;11179;52.106;21.024;2024-03-02T07:56:29;100213.97;;;6.44;76.75
22031;BME280;11179;52.106;21.024;2024-03-02T07:58:54;100219.56;;;6.49;76.50
22031;BME280;11179;52.106;21.024;2024-03-02T08:01:22;100214.69;;;6.51;76.35
22031;BME280;11179;52.106;21.024;2024-03-02T08:03:47;100208.97;;;6.53;76.42
22031;BME280;11179;52.106;21.024;2024-03-02T08:06:16;100204.25;;;6.60;76.26
22031;BME280;11179;52.106;21.024;2024-03-02T08:08:41;100210.31;;;6.62;76.30
22031;BME280;11179;52.106;21.024;2024-03-02T08:11:06;100202.13;;;6.62;76.15
22031;BME280;11179;52.106;21.024;2024-03-02T08:13:32;100202.97;;;6.63;76.03
22031;BME280;11179;52.106;21.024;2024-03-02T08:15:57;100207.91;;;6.66;75.80
22031;BME280;11179;52.106;21.024;2024-03-02T08:18:23;100201.66;;;6.65;76.02
22031;BME280;11179;52.106;21.024;2024-03-02T08:20:49;100199.75;;;6.66;76.15
22031;BME280;11179;52.106;21.024;2024-03-02T08:23:14;100199.03;;;6.70;75.63
22031;BME280;11179;52.106;21.024;2024-03-02T08:25:39;100212.81;;;6.75;75.58
22031;BME280;11179;52.106;21.024;2024-03-02T08:28:05;100215.31;;;6.77;75.55
22031;BME280;11179;52.106;21.024;2024-03-02T08:30:31;100211.38;;;6.84;75.58
22031;BME280;11179;52.106;21.024;2024-03-02T08:32:56;100214.25;;;6.89;75.46
22031;BME280;11179;52.106;21.024;2024-03-02T08:35:21;100213.19;;;6.90;75.25
22031;BME280;11179;52.106;21.024;2024-03-02T08:37:48;100215.91;;;6.90;74.95
22031;BME280;11179;52.106;21.024;2024-03-02T08:40:14;100215.06;;;6.90;75.23
22031;BME280;11179;52.106;21.024;2024-03-02T08:42:39;100209.00;;;7.00;75.32
22031;BME280;11179;52.106;21.024;2024-03-02T08:45:06;100213.63;;;6.99;74.94
22031;BME280;11179;52.106;21.024;2024-03-02T08:47:32;100219.56;;;7.08;75.15
22031;BME280;11179;52.106;21.024;2024-03-02T08:49:57;100212.56;;;7.12;74.99
22031;BME280;11179;52.106;21.024;2024-03-02T08:52:23;100216.34;;;7.11;74.85
22031;BME280;11179;52.106;21.024;2024-03-02T08:54:48;100217.78;;;7.02;74.56
22031;BME280;11179;52.106;21.024;2024-03-02T08:57:14;100221.13;;;7.04;74.44
22031;BME280;11179;52.106;21.024;2024-03-02T08:59:39;100229.06;;;7.05;74.33
22031;BME280;11179;52.106;21.024;2024-03-02T09:02:05;100215.66;;;7.04;74.47
22031;BME280;11179;52.106;21.024;2024-03-02T09:04:30;100216.81;;;7.08;74.43
22031;BME280;11179;52.106;21.024;2024-03-02T09:06:56;100218.47;;;7.09;74.39
22031;BME280;11179;52.106;21.024;2024-03-02T09:09:21;100214.69;;;7.10;74.11
22031;BME280;11179;52.106;21.024;2024-03-02T09:11:46;100233.19;;;7.08;74.22
22031;BME280;11179;52.106;21.024;2024-03-02T09:14:12;100227.41;;;7.16;74.38
22031;BME280;11179;52.106;21.024;2024-03-02T09:16:37;100222.53;;;7.18;73.88
22031;BME280;11179;52.106;21.024;2024-03-02T09:19:03;100226.88;;;7.19;74.19
22031;BME280;11179;52.106;21.024;2024-03-02T09:21:28;100226.09;;;7.18;73.96
22031;BME280;11179;52.106;21.024;2024-03-02T09:23:55;100232.84;;;7.16;73.92
22031;BME280;11179;52.106;21.024;2024-03-02T09:26:20;100221.09;;;7.15;73.95
22031;BME280;11179;52.106;21.024;2024-03-02T09:28:46;100222.84;;;7.21;73.88
22031;BME280;11179;52.106;21.024;2024-03-02T09:31:11;100222.50;;;7.29;73.49
22031;BME280;11179;52.106;21.024;2024-03-02T09:33:37;100214.78;;;7.26;73.74
22031;BME280;11179;52.106;21.024;2024-03-02T09:36:04;100211.91;;;7.33;73.57
22031;BME280;11179;52.106;21.024;2024-03-02T09:38:32;100211.06;;;7.33;73.49
22031;BME280;11179;52.106;21.024;2024-03-02T09:40:59;100212.50;;;7.35;73.52
22031;BME280;11179;52.106;21.024;2024-03-02T09:43:26;100210.72;;;7.41;73.39
22031;BME280;11179;52.106;21.024;2024-03-02T09:45:51;100218.06;;;7.52;73.25
22031;BME280;11179;52.106;21.024;2024-03-02T09:48:17;100221.72;;;7.57;73.00
22031;BME280;11179;52.106;21.024;2024-03-02T09:50:43;100219.91;;;7.63;72.67
22031;BME280;11179;52.106;21.024;2024-03-02T09:53:10;100223.59;;;7.69;72.59
22031;BME280;11179;52.106;21.024;2024-03-02T09:55:36;100215.00;;;7.77;72.79
22031;BME280;11179;52.106;21.024;2024-03-02T09:58:03;100216.84;;;7.88;72.57
22031;BME280;11179;52.106;21.024;2024-03-02T10:00:28;100216.38;;;7.91;72.19
22031;BME280;11179;52.106;21.024;2024-03-02T10:02:53;100220.13;;;8.01;71.81
22031;BME280;11179;52.106;21.024;2024-03-02T10:05:26;100214.56;;;7.96;71.71
22031;BME280;11179;52.106;21.024;2024-03-02T10:07:59;100211.25;;;7.94;71.75
22031;BME280;11179;52.106;21.024;2024-03-02T10:10:34;100210.84;;;8.02;71.67
22031;BME280;11179;52.106;21.024;2024-03-02T10:13:04;100200.97;;;8.01;71.24
22031;BME280;11179;52.106;21.024;2024-03-02T10:15:33;100208.59;;;7.99;71.47
22031;BME280;11179;52.106;21.024;2024-03-02T10:17:59;100203.47;;;8.03;71.44
22031;BME280;11179;52.106;21.024;2024-03-02T10:20:25;100203.34;;;8.10;71.56
22031;BME280;11179;52.106;21.024;2024-03-02T10:22:51;100200.44;;;8.16;71.38
22031;BME280;11179;52.106;21.024;2024-03-02T10:25:32;100195.16;;;8.26;71.04
22031;BME280;11179;52.106;21.024;2024-03-02T10:27:59;100200.31;;;8.40;70.97
22031;BME280;11179;52.106;21.024;2024-03-02T10:30:27;100191.72;;;8.48;70.60
22031;BME280;11179;52.106;21.024;2024-03-02T10:32:53;100196.59;;;8.62;70.58
22031;BME280;11179;52.106;21.024;2024-03-02T10:35:22;100199.25;;;8.74;70.44
22031;BME280;11179;52.106;21.024;2024-03-02T10:37:48;100188.44;;;8.84;70.24
22031;BME280;11179;52.106;21.024;2024-03-02T10:40:14;100191.91;;;8.96;69.86
22031;BME280;11179;52.106;21.024;2024-03-02T10:42:41;100187.09;;;8.87;69.35
22031;BME280;11179;52.106;21.024;2024-03-02T10:45:09;100195.41;;;8.92;69.37
22031;BME280;11179;52.106;21.024;2024-03-02T10:47:36;100185.09;;;8.99;69.29
22031;BME280;11179;52.106;21.024;2024-03-02T10:50:04;100192.94;;;9.12;69.15
22031;BME280;11179;52.106;21.024;2024-03-02T10:52:36;100189.13;;;9.13;68.99
22031;BME280;11179;52.106;21.024;2024-03-02T10:55:02;100187.72;;;9.11;68.55
22031;BME280;11179;52.106;21.024;2024-03-02T10:57:40;100187.63;;;9.05;68.29
22031;BME280;11179;52.106;21.024;2024-03-02T11:00:07;100194.22;;;9.04;68.12
22031;BME280;11179;52.106;21.024;2024-03-02T11:02:42;100180.69;;;8.98;68.01
22031;BME280;11179;52.106;21.024;2024-03-02T11:05:10;100182.72;;;9.07;68.21
22031;BME280;11179;52.106;21.024;2024-03-02T11:07:37;100181.03;;;9.23;68.08
22031;BME280;11179;52.106;21.024;2024-03-02T11:10:05;100183.66;;;9.35;68.00
22031;BME280;11179;52.106;21.024;2024-03-02T11:12:36;100177.34;;;9.34;67.68
22031;BME280;11179;52.106;21.024;2024-03-02T11:15:10;100175.13;;;9.53;67.77
22031;BME280;11179;52.106;21.024;2024-03-02T11:17:38;100179.97;;;9.73;67.33
22031;BME280;11179;52.106;21.024;2024-03-02T11:20:06;100172.47;;;9.85;66.99
22031;BME280;11179;52.106;21.024;2024-03-02T11:22:35;100167.63;;;9.92;66.99
22031;BME280;11179;52.106;21.024;2024-03-02T11:25:01;100177.03;;;10.01;67.08
22031;BME280;11179;52.106;21.024;2024-03-02T11:32:59;100159.34;;;9.87;65.72
22031;BME280;11179;52.106;21.024;2024-03-02T11:35:26;100158.22;;;9.83;65.65
22031;BME280;11179;52.106;21.024;2024-03-02T11:37:52;100167.56;;;9.87;65.62
22031;BME280;11179;52.106;21.024;2024-03-02T11:40:35;100155.75;;;9.87;65.42
22031;BME280;11179;52.106;21.024;2024-03-02T11:43:01;100150.16;;;9.98;65.84
22031;BME280;11179;52.106;21.024;2024-03-02T11:45:27;100144.50;;;10.15;65.44
22031;BME280;11179;52.106;21.024;2024-03-02T11:48:00;100144.56;;;10.20;64.97
22031;BME280;11179;52.106;21.024;2024-03-02T11:50:36;100138.06;;;10.31;65.35
22031;BME280;11179;52.106;21.024;2024-03-02T11:53:06;100148.03;;;10.42;65.08
22031;BME280;11179;52.106;21.024;2024-03-02T11:55:35;100141.41;;;10.33;64.66
22031;BME280;11179;52.106;21.024;2024-03-02T11:58:04;100140.47;;;10.23;64.44
22031;BME280;11179;52.106;21.024;2024-03-02T12:00:29;100138.56;;;10.23;64.65
22031;BME280;11179;52.106;21.024;2024-03-02T12:03:09;100150.41;;;10.29;64.56
22031;BME280;11179;52.106;21.024;2024-03-02T12:05:37;100146.88;;;10.33;64.43
22031;BME280;11179;52.106;21.024;2024-03-02T12:08:04;100147.41;;;10.30;63.84
22031;BME280;11179;52.106;21.024;2024-03-02T12:10:30;100149.81;;;10.27;63.87
22031;BME280;11179;52.106;21.024;2024-03-02T12:13:01;100147.91;;;10.27;63.86
22031;BME280;11179;52.106;21.024;2024-03-02T12:15:27;100142.44;;;10.27;63.95
22031;BME280;11179;52.106;21.024;2024-03-02T12:17:58;100151.03;;;10.41;63.93
22031;BME280;11179;52.106;21.024;2024-03-02T12:20:24;100152.50;;;10.54;63.73
22031;BME280;11179;52.106;21.024;2024-03-02T12:22:51;100156.97;;;10.60;63.56
22031;BME280;11179;52.106;21.024;2024-03-02T12:25:20;100156.97;;;10.60;63.35
22031;BME280;11179;52.106;21.024;2024-03-02T12:27:56;100155.91;;;10.66;63.22
22031;BME280;11179;52.106;21.024;2024-03-02T12:30:22;100152.88;;;10.67;63.01
22031;BME280;11179;52.106;21.024;2024-03-02T12:32:48;100152.06;;;10.67;63.24
22031;BME280;11179;52.106;21.024;2024-03-02T12:35:14;100149.94;;;10.74;63.29
22031;BME280;11179;52.106;21.024;2024-03-02T12:37:47;100152.69;;;10.79;63.06
22031;BME280;11179;52.106;21.024;2024-03-02T12:40:13;100154.91;;;10.82;63.13
22031;BME280;11179;52.106;21.024;2024-03-02T12:42:39;100156.00;;;10.76;63.06
22031;BME280;11179;52.106;21.024;2024-03-02T12:45:06;100149.94;;;10.79;63.31
22031;BME280;11179;52.106;21.024;2024-03-02T12:47:32;100157.09;;;10.80;63.00
22031;BME280;11179;52.106;21.024;2024-03-02T12:49:58;100147.75;;;10.81;63.02
22031;BME280;11179;52.106;21.024;2024-03-02T12:52:24;100148.31;;;10.78;62.76